Campanya meteocatpedra

Dades EMA Monells

?
?
Resum diari 22:30 TU
Dades diàries de l'estació meteorològica
Temperatura mitjana 22.7 °C
Temperatura màxima 30.4 °C 11:10 TU
Temperatura mínima 12.1 °C 4:26 TU
Humitat relativa mitjana 56%
Precipitació acumulada 0.0 mm
Ratxa màxima del vent (2 m) 22.0 km/h - 198º 15:50 TU
Irradiació solar global 29.3 MJ/m2

El tram horari està expressat en Temps Universal (TU). Cal sumar una hora en horari d'hivern i dues en horari d'estiu per passar a l'hora oficial.

Monells

Metadades estació meteorol´gica
Municipi Cruïlles, Monells i Sant Sadurní de l'Heura
Comarca Baix Empordà
Altitud 60 m
Data alta 04.03.1998
Estat actual Operativa
Dades de període
Període
TU
TM
°C
TX
°C
TN
°C
HRM
%
PPT
mm
VVM (2 m)
km/h
DVM (2 m)
graus
VVX (2 m)
km/h
RS
W/m2
00:00 - 00:30 13.9 14.1 13.7 93 0.0 2.2 227 6.1 0
00:30 - 01:00 13.7 13.9 13.5 93 0.0 3.6 220 7.2 0
01:00 - 01:30 13.6 13.8 13.1 93 0.0 1.1 217 4.3 0
01:30 - 02:00 12.9 13.1 12.7 95 0.0 2.5 225 5.4 0
02:00 - 02:30 12.7 13.0 12.6 95 0.0 2.9 235 5.8 0
02:30 - 03:00 13.1 13.4 12.9 95 0.0 2.5 228 6.1 0
03:00 - 03:30 12.9 13.2 12.4 95 0.0 3.6 237 7.6 0
03:30 - 04:00 12.5 12.9 12.2 96 0.0 2.9 227 5.4 0
04:00 - 04:30 12.3 12.5 12.1 97 0.0 3.2 219 4.3 2
04:30 - 05:00 12.6 12.9 12.3 96 0.0 2.2 236 6.1 21
05:00 - 05:30 13.9 14.9 12.9 94 0.0 3.2 223 5.0 60
05:30 - 06:00 16.4 17.8 14.9 85 0.0 2.9 172 7.2 190
06:00 - 06:30 18.9 19.6 17.8 74 0.0 4.0 64 9.0 280
06:30 - 07:00 20.9 22.5 19.7 65 0.0 1.8 98 6.8 378
07:00 - 07:30 23.3 24.4 22.5 56 0.0 1.8 134 4.7 471
07:30 - 08:00 25.2 25.9 24.7 47 0.0 3.2 87 9.4 565
08:00 - 08:30 26.3 27.0 25.6 41 0.0 4.3 100 10.8 651
08:30 - 09:00 27.3 27.7 26.9 37 0.0 3.2 115 12.6 725
09:00 - 09:30 27.9 28.7 27.0 37 0.0 3.6 128 12.2 791
09:30 - 10:00 28.2 28.9 27.9 36 0.0 5.8 51 16.2 850
10:00 - 10:30 28.8 29.7 28.2 36 0.0 4.7 110 11.9 895
10:30 - 11:00 29.5 30.1 29.1 34 0.0 4.7 124 17.6 927
11:00 - 11:30 30.0 30.4 29.5 35 0.0 5.8 83 16.6 943
11:30 - 12:00 29.8 30.1 29.6 35 0.0 7.2 85 20.2 949
12:00 - 12:30 29.5 30.2 29.1 36 0.0 8.3 143 18.7 944
12:30 - 13:00 28.8 29.1 28.5 37 0.0 10.1 178 21.6 919
13:00 - 13:30 28.9 29.0 28.7 37 0.0 9.7 169 20.9 884
13:30 - 14:00 28.9 29.4 28.7 37 0.0 7.9 176 18.7 837
14:00 - 14:30 29.2 29.8 28.8 36 0.0 8.6 174 18.4 779
14:30 - 15:00 28.9 29.3 28.7 37 0.0 8.6 169 20.9 712
15:00 - 15:30 28.9 29.4 28.5 37 0.0 10.1 174 18.0 636
15:30 - 16:00 28.6 28.9 28.4 37 0.0 10.4 167 22.0 554
16:00 - 16:30 28.5 28.9 28.2 37 0.0 9.4 166 19.1 461
16:30 - 17:00 28.4 28.5 28.2 37 0.0 8.3 168 16.6 367
17:00 - 17:30 28.4 28.6 28.0 38 0.0 7.2 167 13.3 268
17:30 - 18:00 27.8 28.0 27.4 38 0.0 6.5 178 12.6 173
18:00 - 18:30 27.1 27.4 26.2 40 0.0 4.0 198 9.4 83
18:30 - 19:00 25.3 26.1 24.5 40 0.0 6.1 250 13.7 15
19:00 - 19:30 24.2 24.6 23.5 41 0.0 7.9 223 13.7 1
19:30 - 20:00 22.5 23.4 21.6 46 0.0 1.8 235 5.4 0
20:00 - 20:30 21.4 21.6 21.2 50 0.0 1.8 261 4.7 0
20:30 - 21:00 22.0 22.7 21.3 48 0.0 4.0 244 9.0 0
21:00 - 21:30 22.2 22.7 21.3 47 0.0 3.2 273 10.8 0
21:30 - 22:00 21.1 21.8 19.9 52 0.0 3.2 269 6.8 0
22:00 - 22:30 19.2 19.9 18.4 61 0.0 1.8 262 5.0 0
22:30 - 23:00 17.8 18.4 17.4 68 0.0 1.1 21 4.0 0

Les dades en taronja només han passat un control de qualitat automàtic. Resta pendent la seva validació definitiva.